sensor_id;sensor_type;location;lat;lon;timestamp;P1;durP1;ratioP1;P2;durP2;ratioP2
34359;SDS011;20624;55.870;26.506;2023-03-01T00:01:25;6.15;;;0.82;;
34359;SDS011;20624;55.870;26.506;2023-03-01T00:03:55;4.15;;;0.40;;
34359;SDS011;20624;55.870;26.506;2023-03-01T00:06:23;6.40;;;0.85;;
34359;SDS011;20624;55.870;26.506;2023-03-01T00:08:50;8.43;;;1.10;;
34359;SDS011;20624;55.870;26.506;2023-03-01T00:11:20;7.47;;;0.98;;
34359;SDS011;20624;55.870;26.506;2023-03-01T00:13:53;5.25;;;0.65;;
34359;SDS011;20624;55.870;26.506;2023-03-01T00:16:32;6.35;;;0.82;;
34359;SDS011;20624;55.870;26.506;2023-03-01T00:19:00;5.78;;;0.82;;
34359;SDS011;20624;55.870;26.506;2023-03-01T00:21:29;4.50;;;0.68;;
34359;SDS011;20624;55.870;26.506;2023-03-01T00:23:57;4.45;;;0.65;;
34359;SDS011;20624;55.870;26.506;2023-03-01T00:26:25;8.25;;;1.13;;
34359;SDS011;20624;55.870;26.506;2023-03-01T00:28:54;5.00;;;0.65;;
34359;SDS011;20624;55.870;26.506;2023-03-01T00:31:22;2.03;;;0.22;;
34359;SDS011;20624;55.870;26.506;2023-03-01T00:33:53;4.07;;;0.57;;
34359;SDS011;20624;55.870;26.506;2023-03-01T00:36:26;3.30;;;0.38;;
34359;SDS011;20624;55.870;26.506;2023-03-01T00:39:00;3.50;;;0.43;;
34359;SDS011;20624;55.870;26.506;2023-03-01T00:41:30;4.38;;;0.80;;
34359;SDS011;20624;55.870;26.506;2023-03-01T00:43:57;8.15;;;0.93;;
34359;SDS011;20624;55.870;26.506;2023-03-01T00:48:57;5.85;;;0.73;;
34359;SDS011;20624;55.870;26.506;2023-03-01T00:51:25;9.57;;;1.23;;
34359;SDS011;20624;55.870;26.506;2023-03-01T00:53:54;4.93;;;0.90;;
34359;SDS011;20624;55.870;26.506;2023-03-01T00:56:23;7.60;;;1.17;;
34359;SDS011;20624;55.870;26.506;2023-03-01T00:58:50;5.35;;;0.75;;
34359;SDS011;20624;55.870;26.506;2023-03-01T01:01:20;6.15;;;0.93;;
34359;SDS011;20624;55.870;26.506;2023-03-01T01:03:53;6.22;;;1.23;;
34359;SDS011;20624;55.870;26.506;2023-03-01T01:06:33;6.25;;;0.98;;
34359;SDS011;20624;55.870;26.506;2023-03-01T01:09:21;4.93;;;0.70;;
34359;SDS011;20624;55.870;26.506;2023-03-01T01:11:49;1.85;;;0.30;;
34359;SDS011;20624;55.870;26.506;2023-03-01T01:14:18;2.05;;;0.30;;
34359;SDS011;20624;55.870;26.506;2023-03-01T01:16:45;4.18;;;0.60;;
34359;SDS011;20624;55.870;26.506;2023-03-01T01:19:13;11.52;;;1.48;;
34359;SDS011;20624;55.870;26.506;2023-03-01T01:21:42;3.60;;;0.52;;
34359;SDS011;20624;55.870;26.506;2023-03-01T01:24:10;2.08;;;0.28;;
34359;SDS011;20624;55.870;26.506;2023-03-01T01:26:38;3.53;;;0.52;;
34359;SDS011;20624;55.870;26.506;2023-03-01T01:29:05;3.25;;;0.47;;
34359;SDS011;20624;55.870;26.506;2023-03-01T01:31:33;6.57;;;0.90;;
34359;SDS011;20624;55.870;26.506;2023-03-01T01:34:02;4.72;;;0.65;;
34359;SDS011;20624;55.870;26.506;2023-03-01T01:36:31;3.05;;;0.40;;
34359;SDS011;20624;55.870;26.506;2023-03-01T01:39:01;4.05;;;0.50;;
34359;SDS011;20624;55.870;26.506;2023-03-01T01:41:29;2.75;;;0.32;;
34359;SDS011;20624;55.870;26.506;2023-03-01T01:47:13;3.17;;;0.50;;
34359;SDS011;20624;55.870;26.506;2023-03-01T01:49:56;6.15;;;0.80;;
34359;SDS011;20624;55.870;26.506;2023-03-01T01:52:29;4.03;;;0.47;;
34359;SDS011;20624;55.870;26.506;2023-03-01T01:55:11;3.53;;;0.50;;
34359;SDS011;20624;55.870;26.506;2023-03-01T01:57:46;7.00;;;0.85;;
34359;SDS011;20624;55.870;26.506;2023-03-01T02:00:21;3.13;;;0.47;;
34359;SDS011;20624;55.870;26.506;2023-03-01T02:02:52;5.72;;;0.75;;
34359;SDS011;20624;55.870;26.506;2023-03-01T02:07:59;2.60;;;0.30;;
34359;SDS011;20624;55.870;26.506;2023-03-01T02:10:27;2.35;;;0.38;;
34359;SDS011;20624;55.870;26.506;2023-03-01T02:12:55;9.52;;;1.20;;
34359;SDS011;20624;55.870;26.506;2023-03-01T02:15:25;1.83;;;0.20;;
34359;SDS011;20624;55.870;26.506;2023-03-01T02:17:53;2.97;;;0.38;;
34359;SDS011;20624;55.870;26.506;2023-03-01T02:23:25;9.10;;;1.10;;
34359;SDS011;20624;55.870;26.506;2023-03-01T02:25:57;4.30;;;0.50;;
34359;SDS011;20624;55.870;26.506;2023-03-01T02:28:37;6.05;;;0.77;;
34359;SDS011;20624;55.870;26.506;2023-03-01T02:31:07;2.95;;;0.40;;
34359;SDS011;20624;55.870;26.506;2023-03-01T02:33:55;5.07;;;0.63;;
34359;SDS011;20624;55.870;26.506;2023-03-01T02:36:24;6.35;;;0.85;;
34359;SDS011;20624;55.870;26.506;2023-03-01T02:38:56;12.27;;;1.58;;
34359;SDS011;20624;55.870;26.506;2023-03-01T02:41:24;8.98;;;1.20;;
34359;SDS011;20624;55.870;26.506;2023-03-01T02:43:54;9.07;;;1.20;;
34359;SDS011;20624;55.870;26.506;2023-03-01T02:46:23;6.57;;;0.80;;
34359;SDS011;20624;55.870;26.506;2023-03-01T02:48:52;4.68;;;0.60;;
34359;SDS011;20624;55.870;26.506;2023-03-01T02:56:28;4.60;;;0.65;;
34359;SDS011;20624;55.870;26.506;2023-03-01T02:58:56;5.97;;;0.80;;
34359;SDS011;20624;55.870;26.506;2023-03-01T03:01:27;8.38;;;1.10;;
34359;SDS011;20624;55.870;26.506;2023-03-01T03:04:03;2.92;;;0.50;;
34359;SDS011;20624;55.870;26.506;2023-03-01T03:06:31;3.70;;;0.57;;
34359;SDS011;20624;55.870;26.506;2023-03-01T03:08:59;3.50;;;0.47;;
34359;SDS011;20624;55.870;26.506;2023-03-01T03:11:27;4.53;;;0.68;;
34359;SDS011;20624;55.870;26.506;2023-03-01T03:13:55;4.75;;;0.68;;
34359;SDS011;20624;55.870;26.506;2023-03-01T03:16:22;3.53;;;0.50;;
34359;SDS011;20624;55.870;26.506;2023-03-01T03:18:50;4.82;;;0.70;;
34359;SDS011;20624;55.870;26.506;2023-03-01T03:21:18;5.75;;;0.88;;
34359;SDS011;20624;55.870;26.506;2023-03-01T03:23:48;1.63;;;0.32;;
34359;SDS011;20624;55.870;26.506;2023-03-01T03:26:19;6.40;;;0.77;;
34359;SDS011;20624;55.870;26.506;2023-03-01T03:28:46;2.92;;;0.35;;
34359;SDS011;20624;55.870;26.506;2023-03-01T03:31:14;4.70;;;0.70;;
34359;SDS011;20624;55.870;26.506;2023-03-01T03:33:41;3.08;;;0.47;;
34359;SDS011;20624;55.870;26.506;2023-03-01T03:36:09;2.80;;;0.40;;
34359;SDS011;20624;55.870;26.506;2023-03-01T03:38:40;6.07;;;0.75;;
34359;SDS011;20624;55.870;26.506;2023-03-01T03:41:07;3.92;;;0.57;;
34359;SDS011;20624;55.870;26.506;2023-03-01T03:43:36;5.22;;;0.70;;
34359;SDS011;20624;55.870;26.506;2023-03-01T03:46:04;4.28;;;0.65;;
34359;SDS011;20624;55.870;26.506;2023-03-01T03:48:42;4.72;;;0.70;;
34359;SDS011;20624;55.870;26.506;2023-03-01T03:51:14;8.25;;;1.08;;
34359;SDS011;20624;55.870;26.506;2023-03-01T03:53:42;5.38;;;0.73;;
34359;SDS011;20624;55.870;26.506;2023-03-01T03:56:10;11.52;;;1.52;;
34359;SDS011;20624;55.870;26.506;2023-03-01T03:58:38;3.92;;;0.52;;
34359;SDS011;20624;55.870;26.506;2023-03-01T04:01:05;2.55;;;0.32;;
34359;SDS011;20624;55.870;26.506;2023-03-01T04:03:33;3.38;;;0.50;;
34359;SDS011;20624;55.870;26.506;2023-03-01T04:06:01;2.25;;;0.32;;
34359;SDS011;20624;55.870;26.506;2023-03-01T04:08:30;1.50;;;0.30;;
34359;SDS011;20624;55.870;26.506;2023-03-01T04:11:01;2.60;;;0.30;;
34359;SDS011;20624;55.870;26.506;2023-03-01T04:13:49;2.72;;;0.30;;
34359;SDS011;20624;55.870;26.506;2023-03-01T04:16:17;4.88;;;0.77;;
34359;SDS011;20624;55.870;26.506;2023-03-01T04:21:16;4.80;;;0.65;;
34359;SDS011;20624;55.870;26.506;2023-03-01T04:23:46;2.75;;;0.40;;
34359;SDS011;20624;55.870;26.506;2023-03-01T04:26:13;6.32;;;0.80;;
34359;SDS011;20624;55.870;26.506;2023-03-01T04:31:13;2.47;;;0.55;;
34359;SDS011;20624;55.870;26.506;2023-03-01T04:33:45;3.55;;;0.50;;
34359;SDS011;20624;55.870;26.506;2023-03-01T04:36:21;6.60;;;0.85;;
34359;SDS011;20624;55.870;26.506;2023-03-01T04:38:51;4.88;;;0.68;;
34359;SDS011;20624;55.870;26.506;2023-03-01T04:41:19;5.00;;;0.68;;
34359;SDS011;20624;55.870;26.506;2023-03-01T04:43:48;2.50;;;0.35;;
34359;SDS011;20624;55.870;26.506;2023-03-01T04:46:18;8.60;;;1.17;;
34359;SDS011;20624;55.870;26.506;2023-03-01T04:51:14;8.52;;;1.10;;
34359;SDS011;20624;55.870;26.506;2023-03-01T04:53:42;7.25;;;0.82;;
34359;SDS011;20624;55.870;26.506;2023-03-01T04:56:10;3.15;;;0.45;;
34359;SDS011;20624;55.870;26.506;2023-03-01T04:58:37;4.50;;;0.55;;
34359;SDS011;20624;55.870;26.506;2023-03-01T05:01:13;3.60;;;0.40;;
34359;SDS011;20624;55.870;26.506;2023-03-01T05:03:43;6.32;;;0.82;;
34359;SDS011;20624;55.870;26.506;2023-03-01T05:06:11;5.47;;;0.75;;
34359;SDS011;20624;55.870;26.506;2023-03-01T05:08:39;7.50;;;1.08;;
34359;SDS011;20624;55.870;26.506;2023-03-01T05:11:08;8.50;;;1.08;;
34359;SDS011;20624;55.870;26.506;2023-03-01T05:13:36;6.53;;;0.82;;
34359;SDS011;20624;55.870;26.506;2023-03-01T05:16:04;5.32;;;0.75;;
34359;SDS011;20624;55.870;26.506;2023-03-01T05:18:33;4.68;;;0.57;;
34359;SDS011;20624;55.870;26.506;2023-03-01T05:21:06;5.53;;;0.70;;
34359;SDS011;20624;55.870;26.506;2023-03-01T05:23:38;12.63;;;1.60;;
34359;SDS011;20624;55.870;26.506;2023-03-01T05:26:07;9.82;;;1.30;;
34359;SDS011;20624;55.870;26.506;2023-03-01T05:28:52;9.43;;;1.15;;
34359;SDS011;20624;55.870;26.506;2023-03-01T05:31:25;7.65;;;1.10;;
34359;SDS011;20624;55.870;26.506;2023-03-01T05:33:53;11.20;;;1.50;;
34359;SDS011;20624;55.870;26.506;2023-03-01T05:36:20;10.27;;;1.35;;
34359;SDS011;20624;55.870;26.506;2023-03-01T05:38:48;5.00;;;0.70;;
34359;SDS011;20624;55.870;26.506;2023-03-01T05:41:15;16.45;;;2.08;;
34359;SDS011;20624;55.870;26.506;2023-03-01T05:43:43;4.10;;;0.65;;
34359;SDS011;20624;55.870;26.506;2023-03-01T05:46:11;3.28;;;0.47;;
34359;SDS011;20624;55.870;26.506;2023-03-01T05:48:39;5.53;;;0.75;;
34359;SDS011;20624;55.870;26.506;2023-03-01T05:51:07;5.70;;;0.70;;
34359;SDS011;20624;55.870;26.506;2023-03-01T05:53:34;14.50;;;2.05;;
34359;SDS011;20624;55.870;26.506;2023-03-01T05:56:05;2.53;;;0.30;;
34359;SDS011;20624;55.870;26.506;2023-03-01T05:58:32;10.60;;;1.35;;
34359;SDS011;20624;55.870;26.506;2023-03-01T06:01:00;8.65;;;1.20;;
34359;SDS011;20624;55.870;26.506;2023-03-01T06:03:27;14.65;;;2.05;;
34359;SDS011;20624;55.870;26.506;2023-03-01T06:05:56;47.83;;;6.20;;
34359;SDS011;20624;55.870;26.506;2023-03-01T06:08:23;16.65;;;2.17;;
34359;SDS011;20624;55.870;26.506;2023-03-01T06:10:53;21.15;;;2.75;;
34359;SDS011;20624;55.870;26.506;2023-03-01T06:13:24;23.27;;;3.22;;
34359;SDS011;20624;55.870;26.506;2023-03-01T06:15:54;102.88;;;14.15;;
34359;SDS011;20624;55.870;26.506;2023-03-01T06:18:22;54.33;;;7.32;;
34359;SDS011;20624;55.870;26.506;2023-03-01T06:20:53;34.22;;;4.60;;
34359;SDS011;20624;55.870;26.506;2023-03-01T06:23:22;37.50;;;4.97;;
34359;SDS011;20624;55.870;26.506;2023-03-01T06:25:50;75.55;;;9.82;;
34359;SDS011;20624;55.870;26.506;2023-03-01T06:28:18;80.88;;;10.80;;
34359;SDS011;20624;55.870;26.506;2023-03-01T06:30:45;54.67;;;7.45;;
34359;SDS011;20624;55.870;26.506;2023-03-01T06:33:13;48.85;;;6.40;;
34359;SDS011;20624;55.870;26.506;2023-03-01T06:35:40;50.55;;;6.78;;
34359;SDS011;20624;55.870;26.506;2023-03-01T06:38:08;104.88;;;13.82;;
34359;SDS011;20624;55.870;26.506;2023-03-01T06:40:36;86.85;;;11.68;;
34359;SDS011;20624;55.870;26.506;2023-03-01T06:43:03;31.02;;;4.00;;
34359;SDS011;20624;55.870;26.506;2023-03-01T06:45:33;37.72;;;4.97;;
34359;SDS011;20624;55.870;26.506;2023-03-01T06:48:05;100.80;;;13.40;;
34359;SDS011;20624;55.870;26.506;2023-03-01T06:50:33;99.95;;;13.45;;
34359;SDS011;20624;55.870;26.506;2023-03-01T06:53:02;80.82;;;10.95;;
34359;SDS011;20624;55.870;26.506;2023-03-01T06:55:30;30.73;;;4.30;;
34359;SDS011;20624;55.870;26.506;2023-03-01T06:57:58;32.13;;;4.22;;
34359;SDS011;20624;55.870;26.506;2023-03-01T07:00:26;97.70;;;13.25;;
34359;SDS011;20624;55.870;26.506;2023-03-01T07:02:56;94.65;;;12.52;;
34359;SDS011;20624;55.870;26.506;2023-03-01T07:05:25;94.03;;;13.45;;
34359;SDS011;20624;55.870;26.506;2023-03-01T07:07:53;46.30;;;6.22;;
34359;SDS011;20624;55.870;26.506;2023-03-01T07:10:23;58.05;;;7.75;;
34359;SDS011;20624;55.870;26.506;2023-03-01T07:12:53;99.50;;;13.35;;
34359;SDS011;20624;55.870;26.506;2023-03-01T07:15:24;126.85;;;17.15;;
34359;SDS011;20624;55.870;26.506;2023-03-01T07:17:52;103.40;;;14.45;;
34359;SDS011;20624;55.870;26.506;2023-03-01T07:20:21;52.17;;;7.07;;
34359;SDS011;20624;55.870;26.506;2023-03-01T07:22:52;45.45;;;6.00;;
34359;SDS011;20624;55.870;26.506;2023-03-01T07:25:19;79.78;;;11.20;;
34359;SDS011;20624;55.870;26.506;2023-03-01T07:27:51;136.88;;;19.17;;
34359;SDS011;20624;55.870;26.506;2023-03-01T07:30:18;73.68;;;10.40;;
34359;SDS011;20624;55.870;26.506;2023-03-01T07:32:47;58.13;;;7.80;;
34359;SDS011;20624;55.870;26.506;2023-03-01T07:35:15;48.00;;;6.45;;
34359;SDS011;20624;55.870;26.506;2023-03-01T07:37:47;104.55;;;14.73;;
34359;SDS011;20624;55.870;26.506;2023-03-01T07:40:14;67.82;;;9.43;;
34359;SDS011;20624;55.870;26.506;2023-03-01T07:42:42;87.93;;;12.50;;
34359;SDS011;20624;55.870;26.506;2023-03-01T07:45:12;35.78;;;5.05;;
34359;SDS011;20624;55.870;26.506;2023-03-01T07:47:42;44.75;;;6.10;;
34359;SDS011;20624;55.870;26.506;2023-03-01T07:50:10;86.70;;;12.07;;
34359;SDS011;20624;55.870;26.506;2023-03-01T07:52:39;103.70;;;14.85;;
34359;SDS011;20624;55.870;26.506;2023-03-01T07:55:16;96.95;;;12.88;;
34359;SDS011;20624;55.870;26.506;2023-03-01T07:57:43;65.78;;;9.07;;
34359;SDS011;20624;55.870;26.506;2023-03-01T08:00:11;36.28;;;4.97;;
34359;SDS011;20624;55.870;26.506;2023-03-01T08:02:42;80.25;;;11.32;;
34359;SDS011;20624;55.870;26.506;2023-03-01T08:05:12;78.22;;;11.05;;
34359;SDS011;20624;55.870;26.506;2023-03-01T08:07:39;82.82;;;11.52;;
34359;SDS011;20624;55.870;26.506;2023-03-01T08:10:07;54.75;;;7.60;;
34359;SDS011;20624;55.870;26.506;2023-03-01T08:12:38;70.53;;;9.82;;
34359;SDS011;20624;55.870;26.506;2023-03-01T08:15:08;41.67;;;5.80;;
34359;SDS011;20624;55.870;26.506;2023-03-01T08:17:35;90.75;;;12.77;;
34359;SDS011;20624;55.870;26.506;2023-03-01T08:20:04;73.68;;;10.45;;
34359;SDS011;20624;55.870;26.506;2023-03-01T08:22:33;70.78;;;10.35;;
34359;SDS011;20624;55.870;26.506;2023-03-01T08:25:01;51.03;;;7.47;;
34359;SDS011;20624;55.870;26.506;2023-03-01T08:29:58;93.07;;;13.32;;
34359;SDS011;20624;55.870;26.506;2023-03-01T08:32:26;73.05;;;10.50;;
34359;SDS011;20624;55.870;26.506;2023-03-01T08:34:53;37.03;;;5.35;;
34359;SDS011;20624;55.870;26.506;2023-03-01T08:37:24;50.10;;;7.18;;
34359;SDS011;20624;55.870;26.506;2023-03-01T08:39:52;75.80;;;11.02;;
34359;SDS011;20624;55.870;26.506;2023-03-01T08:42:21;96.68;;;14.18;;
34359;SDS011;20624;55.870;26.506;2023-03-01T08:44:49;59.25;;;8.50;;
34359;SDS011;20624;55.870;26.506;2023-03-01T08:47:17;31.58;;;4.35;;
34359;SDS011;20624;55.870;26.506;2023-03-01T08:49:44;57.67;;;8.32;;
34359;SDS011;20624;55.870;26.506;2023-03-01T08:52:11;20.10;;;2.70;;
34359;SDS011;20624;55.870;26.506;2023-03-01T08:54:39;30.25;;;4.22;;
34359;SDS011;20624;55.870;26.506;2023-03-01T08:57:09;19.67;;;2.78;;
34359;SDS011;20624;55.870;26.506;2023-03-01T09:02:04;18.00;;;2.67;;
34359;SDS011;20624;55.870;26.506;2023-03-01T09:04:36;50.22;;;7.22;;
34359;SDS011;20624;55.870;26.506;2023-03-01T09:07:04;28.08;;;4.03;;
34359;SDS011;20624;55.870;26.506;2023-03-01T09:09:34;19.83;;;2.63;;
34359;SDS011;20624;55.870;26.506;2023-03-01T09:12:02;18.05;;;2.45;;
34359;SDS011;20624;55.870;26.506;2023-03-01T09:14:31;18.23;;;2.75;;
34359;SDS011;20624;55.870;26.506;2023-03-01T09:16:59;28.35;;;4.03;;
34359;SDS011;20624;55.870;26.506;2023-03-01T09:19:29;20.27;;;2.80;;
34359;SDS011;20624;55.870;26.506;2023-03-01T09:21:58;24.13;;;3.40;;
34359;SDS011;20624;55.870;26.506;2023-03-01T09:24:26;19.83;;;3.05;;
34359;SDS011;20624;55.870;26.506;2023-03-01T09:26:57;23.15;;;3.38;;
34359;SDS011;20624;55.870;26.506;2023-03-01T09:31:57;19.67;;;3.42;;
34359;SDS011;20624;55.870;26.506;2023-03-01T09:34:28;23.00;;;3.33;;
34359;SDS011;20624;55.870;26.506;2023-03-01T09:36:57;27.25;;;3.80;;
34359;SDS011;20624;55.870;26.506;2023-03-01T09:39:28;17.65;;;2.50;;
34359;SDS011;20624;55.870;26.506;2023-03-01T09:41:58;32.03;;;4.47;;
34359;SDS011;20624;55.870;26.506;2023-03-01T09:44:40;26.15;;;3.67;;
34359;SDS011;20624;55.870;26.506;2023-03-01T09:47:36;19.25;;;2.80;;
34359;SDS011;20624;55.870;26.506;2023-03-01T09:50:20;14.57;;;2.15;;
34359;SDS011;20624;55.870;26.506;2023-03-01T09:55:52;27.58;;;4.07;;
34359;SDS011;20624;55.870;26.506;2023-03-01T10:01:30;28.00;;;3.95;;
34359;SDS011;20624;55.870;26.506;2023-03-01T10:06:34;21.15;;;2.92;;
34359;SDS011;20624;55.870;26.506;2023-03-01T10:09:12;35.67;;;5.07;;
34359;SDS011;20624;55.870;26.506;2023-03-01T10:11:43;39.50;;;5.68;;
34359;SDS011;20624;55.870;26.506;2023-03-01T10:17:19;24.70;;;3.17;;
34359;SDS011;20624;55.870;26.506;2023-03-01T10:22:43;14.95;;;2.20;;
34359;SDS011;20624;55.870;26.506;2023-03-01T10:31:14;15.50;;;2.33;;
34359;SDS011;20624;55.870;26.506;2023-03-01T10:33:44;19.45;;;2.78;;
34359;SDS011;20624;55.870;26.506;2023-03-01T10:38:52;15.68;;;2.33;;
34359;SDS011;20624;55.870;26.506;2023-03-01T10:41:24;23.63;;;3.47;;
34359;SDS011;20624;55.870;26.506;2023-03-01T10:43:58;13.15;;;2.20;;
34359;SDS011;20624;55.870;26.506;2023-03-01T10:46:30;14.45;;;2.17;;
34359;SDS011;20624;55.870;26.506;2023-03-01T10:49:15;16.77;;;2.55;;
34359;SDS011;20624;55.870;26.506;2023-03-01T10:51:50;12.63;;;1.92;;
34359;SDS011;20624;55.870;26.506;2023-03-01T10:54:22;13.38;;;1.90;;
34359;SDS011;20624;55.870;26.506;2023-03-01T10:57:10;21.08;;;3.17;;
34359;SDS011;20624;55.870;26.506;2023-03-01T11:00:24;22.52;;;3.22;;
34359;SDS011;20624;55.870;26.506;2023-03-01T11:05:26;14.60;;;2.13;;
34359;SDS011;20624;55.870;26.506;2023-03-01T11:07:57;16.48;;;2.45;;
34359;SDS011;20624;55.870;26.506;2023-03-01T11:13:16;12.98;;;2.00;;
34359;SDS011;20624;55.870;26.506;2023-03-01T11:16:00;10.38;;;1.58;;
34359;SDS011;20624;55.870;26.506;2023-03-01T11:21:15;19.55;;;2.90;;
34359;SDS011;20624;55.870;26.506;2023-03-01T11:23:43;19.42;;;3.00;;
34359;SDS011;20624;55.870;26.506;2023-03-01T11:26:13;10.73;;;1.63;;
34359;SDS011;20624;55.870;26.506;2023-03-01T11:28:42;16.45;;;2.58;;
34359;SDS011;20624;55.870;26.506;2023-03-01T11:31:11;17.15;;;2.65;;
34359;SDS011;20624;55.870;26.506;2023-03-01T11:33:41;16.38;;;2.60;;
34359;SDS011;20624;55.870;26.506;2023-03-01T11:36:24;20.50;;;2.95;;
34359;SDS011;20624;55.870;26.506;2023-03-01T11:44:57;23.85;;;4.40;;
34359;SDS011;20624;55.870;26.506;2023-03-01T11:50:35;15.25;;;2.47;;
34359;SDS011;20624;55.870;26.506;2023-03-01T11:53:28;13.68;;;2.20;;
34359;SDS011;20624;55.870;26.506;2023-03-01T11:56:25;31.67;;;5.18;;
34359;SDS011;20624;55.870;26.506;2023-03-01T12:01:55;31.77;;;4.82;;
34359;SDS011;20624;55.870;26.506;2023-03-01T12:13:56;19.95;;;3.05;;
34359;SDS011;20624;55.870;26.506;2023-03-01T12:22:35;21.00;;;3.13;;
34359;SDS011;20624;55.870;26.506;2023-03-01T12:25:20;28.63;;;4.30;;
34359;SDS011;20624;55.870;26.506;2023-03-01T12:27:57;22.45;;;3.20;;
34359;SDS011;20624;55.870;26.506;2023-03-01T12:33:28;17.35;;;2.55;;
34359;SDS011;20624;55.870;26.506;2023-03-01T12:52:54;16.52;;;2.53;;
34359;SDS011;20624;55.870;26.506;2023-03-01T12:58:05;17.55;;;2.78;;
34359;SDS011;20624;55.870;26.506;2023-03-01T13:01:24;26.40;;;3.97;;
34359;SDS011;20624;55.870;26.506;2023-03-01T13:09:27;18.77;;;3.28;;
34359;SDS011;20624;55.870;26.506;2023-03-01T13:12:01;27.88;;;4.38;;
34359;SDS011;20624;55.870;26.506;2023-03-01T13:14:35;22.45;;;3.55;;
34359;SDS011;20624;55.870;26.506;2023-03-01T13:17:07;15.20;;;2.35;;
34359;SDS011;20624;55.870;26.506;2023-03-01T13:20:12;28.75;;;4.40;;
34359;SDS011;20624;55.870;26.506;2023-03-01T13:22:40;22.25;;;3.38;;
34359;SDS011;20624;55.870;26.506;2023-03-01T13:25:20;41.60;;;6.22;;
34359;SDS011;20624;55.870;26.506;2023-03-01T13:27:53;34.63;;;5.10;;
34359;SDS011;20624;55.870;26.506;2023-03-01T13:30:59;15.18;;;2.08;;
34359;SDS011;20624;55.870;26.506;2023-03-01T13:35:55;26.42;;;3.88;;
34359;SDS011;20624;55.870;26.506;2023-03-01T13:38:37;16.33;;;2.58;;
34359;SDS011;20624;55.870;26.506;2023-03-01T13:41:05;16.73;;;2.47;;
34359;SDS011;20624;55.870;26.506;2023-03-01T13:43:34;18.33;;;4.15;;
34359;SDS011;20624;55.870;26.506;2023-03-01T13:48:57;20.67;;;4.97;;
34359;SDS011;20624;55.870;26.506;2023-03-01T13:51:26;16.40;;;2.67;;
34359;SDS011;20624;55.870;26.506;2023-03-01T13:53:55;32.75;;;4.90;;
34359;SDS011;20624;55.870;26.506;2023-03-01T13:56:26;19.77;;;3.22;;
34359;SDS011;20624;55.870;26.506;2023-03-01T13:59:01;19.45;;;3.08;;
34359;SDS011;20624;55.870;26.506;2023-03-01T14:01:39;12.07;;;1.95;;
34359;SDS011;20624;55.870;26.506;2023-03-01T14:07:16;23.17;;;3.60;;
34359;SDS011;20624;55.870;26.506;2023-03-01T14:09:47;14.88;;;2.28;;
34359;SDS011;20624;55.870;26.506;2023-03-01T14:12:21;20.70;;;3.17;;
34359;SDS011;20624;55.870;26.506;2023-03-01T14:15:04;20.58;;;3.40;;
34359;SDS011;20624;55.870;26.506;2023-03-01T14:17:59;17.20;;;2.70;;
34359;SDS011;20624;55.870;26.506;2023-03-01T14:20:42;18.92;;;2.95;;
34359;SDS011;20624;55.870;26.506;2023-03-01T14:23:20;15.50;;;2.63;;
34359;SDS011;20624;55.870;26.506;2023-03-01T14:28:21;11.90;;;1.90;;
34359;SDS011;20624;55.870;26.506;2023-03-01T14:30:55;17.40;;;2.92;;
34359;SDS011;20624;55.870;26.506;2023-03-01T14:33:25;18.80;;;2.92;;
34359;SDS011;20624;55.870;26.506;2023-03-01T14:36:00;21.55;;;3.58;;
34359;SDS011;20624;55.870;26.506;2023-03-01T14:38:31;18.98;;;3.22;;
34359;SDS011;20624;55.870;26.506;2023-03-01T14:41:06;16.15;;;3.13;;
34359;SDS011;20624;55.870;26.506;2023-03-01T14:43:37;19.75;;;3.90;;
34359;SDS011;20624;55.870;26.506;2023-03-01T14:46:24;17.75;;;2.88;;
34359;SDS011;20624;55.870;26.506;2023-03-01T14:51:40;31.42;;;8.68;;
34359;SDS011;20624;55.870;26.506;2023-03-01T14:54:29;23.67;;;7.68;;
34359;SDS011;20624;55.870;26.506;2023-03-01T14:57:42;44.10;;;12.05;;
34359;SDS011;20624;55.870;26.506;2023-03-01T15:00:05;35.45;;;8.02;;
34359;SDS011;20624;55.870;26.506;2023-03-01T15:02:33;23.25;;;6.15;;
34359;SDS011;20624;55.870;26.506;2023-03-01T15:05:03;24.27;;;5.03;;
34359;SDS011;20624;55.870;26.506;2023-03-01T15:07:36;12.70;;;2.45;;
34359;SDS011;20624;55.870;26.506;2023-03-01T15:10:07;16.00;;;2.67;;
34359;SDS011;20624;55.870;26.506;2023-03-01T15:12:49;12.98;;;1.98;;
34359;SDS011;20624;55.870;26.506;2023-03-01T15:15:20;13.07;;;2.40;;
34359;SDS011;20624;55.870;26.506;2023-03-01T15:17:52;12.40;;;2.40;;
34359;SDS011;20624;55.870;26.506;2023-03-01T15:20:23;26.00;;;6.55;;
34359;SDS011;20624;55.870;26.506;2023-03-01T15:22:52;19.55;;;4.82;;
34359;SDS011;20624;55.870;26.506;2023-03-01T15:25:21;14.80;;;2.15;;
34359;SDS011;20624;55.870;26.506;2023-03-01T15:27:51;15.57;;;2.58;;
34359;SDS011;20624;55.870;26.506;2023-03-01T15:30:25;16.02;;;4.20;;
34359;SDS011;20624;55.870;26.506;2023-03-01T15:35:58;15.95;;;2.47;;
34359;SDS011;20624;55.870;26.506;2023-03-01T15:38:28;14.95;;;4.53;;
34359;SDS011;20624;55.870;26.506;2023-03-01T15:41:19;7.15;;;1.55;;
34359;SDS011;20624;55.870;26.506;2023-03-01T15:44:00;23.33;;;6.10;;
34359;SDS011;20624;55.870;26.506;2023-03-01T15:46:34;19.15;;;4.95;;
34359;SDS011;20624;55.870;26.506;2023-03-01T15:49:04;35.42;;;8.80;;
34359;SDS011;20624;55.870;26.506;2023-03-01T15:51:51;39.72;;;9.27;;
34359;SDS011;20624;55.870;26.506;2023-03-01T15:54:22;16.05;;;3.63;;
34359;SDS011;20624;55.870;26.506;2023-03-01T15:56:55;12.90;;;2.50;;
34359;SDS011;20624;55.870;26.506;2023-03-01T15:59:22;30.48;;;4.65;;
34359;SDS011;20624;55.870;26.506;2023-03-01T16:01:49;10.70;;;1.77;;
34359;SDS011;20624;55.870;26.506;2023-03-01T16:04:18;18.75;;;4.00;;
34359;SDS011;20624;55.870;26.506;2023-03-01T16:06:50;9.50;;;1.40;;
34359;SDS011;20624;55.870;26.506;2023-03-01T16:09:24;18.05;;;3.70;;
34359;SDS011;20624;55.870;26.506;2023-03-01T16:11:52;23.60;;;4.50;;
34359;SDS011;20624;55.870;26.506;2023-03-01T16:14:20;20.42;;;4.05;;
34359;SDS011;20624;55.870;26.506;2023-03-01T16:16:51;23.33;;;4.97;;
34359;SDS011;20624;55.870;26.506;2023-03-01T16:19:18;15.57;;;3.72;;
34359;SDS011;20624;55.870;26.506;2023-03-01T16:21:46;25.60;;;5.90;;
34359;SDS011;20624;55.870;26.506;2023-03-01T16:24:15;15.90;;;4.50;;
34359;SDS011;20624;55.870;26.506;2023-03-01T16:26:43;21.15;;;5.07;;
34359;SDS011;20624;55.870;26.506;2023-03-01T16:29:11;21.73;;;5.38;;
34359;SDS011;20624;55.870;26.506;2023-03-01T16:31:38;19.70;;;5.45;;
34359;SDS011;20624;55.870;26.506;2023-03-01T16:34:06;26.95;;;5.03;;
34359;SDS011;20624;55.870;26.506;2023-03-01T16:36:35;29.90;;;6.25;;
34359;SDS011;20624;55.870;26.506;2023-03-01T16:39:03;20.88;;;4.90;;
34359;SDS011;20624;55.870;26.506;2023-03-01T16:41:31;29.52;;;6.38;;
34359;SDS011;20624;55.870;26.506;2023-03-01T16:43:59;19.70;;;5.53;;
34359;SDS011;20624;55.870;26.506;2023-03-01T16:46:27;26.33;;;5.32;;
34359;SDS011;20624;55.870;26.506;2023-03-01T16:48:55;20.00;;;4.32;;
34359;SDS011;20624;55.870;26.506;2023-03-01T16:51:26;18.15;;;4.68;;
34359;SDS011;20624;55.870;26.506;2023-03-01T16:53:58;27.83;;;6.35;;
34359;SDS011;20624;55.870;26.506;2023-03-01T16:59:00;24.23;;;5.45;;
34359;SDS011;20624;55.870;26.506;2023-03-01T17:01:31;25.85;;;6.07;;
34359;SDS011;20624;55.870;26.506;2023-03-01T17:04:06;20.70;;;5.07;;
34359;SDS011;20624;55.870;26.506;2023-03-01T17:06:33;36.22;;;8.55;;
34359;SDS011;20624;55.870;26.506;2023-03-01T17:09:03;32.08;;;8.85;;